Flight Track Log - Related Links

Times and Time Zones

All times are in EDT time to prevent confusion due to time zone crossing. See the UAL4274 flight status page for this flight to view local times or setup timezone preferences in your user account.


Time Position Orientation Groundspeed Altitude Reporting Facility
EDT Latitude Longitude Course Direction KTS MPH feet Rate Location/Type
Wed 06:38:38 AM 37.4667 -77.3500 267° West 191 220 3,200  Level Potomac TRACON
Wed 06:39:55 AM 37.4625 -77.4364 267° West 235 270 5,900 2,234 Climbing Washington Center
Wed 06:40:55 AM 37.4506 -77.5250 260° West 240 276 8,300 2,500 Climbing Washington Center
Wed 06:41:55 AM 37.4367 -77.6164 259° West 255 293 10,900 1,800 Climbing Washington Center
Wed 06:42:55 AM 37.4558 -77.7108 284° West 261 300 11,900 1,300 Climbing Washington Center
Wed 06:43:55 AM 37.5169 -77.7886 315° West 283 326 13,500 1,600 Climbing Washington Center
Wed 06:44:55 AM 37.5931 -77.8483 328° Northwest 289 333 15,100 1,500 Climbing Washington Center
Wed 06:45:55 AM 37.6753 -77.9086 330° Northwest 318 366 16,500 1,300 Climbing Washington Center
Wed 06:46:55 AM 37.7578 -77.9664 331° Northwest 332 382 17,700 1,250 Climbing Washington Center
Wed 06:47:55 AM 37.8419 -78.0267 331° Northwest 343 395 19,000 1,300 Climbing Washington Center
Wed 06:48:55 AM 37.9283 -78.0928 329° Northwest 349 402 20,300 1,250 Climbing Washington Center
Wed 06:49:55 AM 38.0228 -78.1567 332° Northwest 367 422 21,500 1,250 Climbing Washington Center
Wed 06:50:55 AM 38.1333 -78.1631 357° North 375 432 22,800 1,300 Climbing Washington Center
Wed 06:51:55 AM 38.2414 -78.1694 357° North 382 440 24,100 1,150 Climbing Washington Center
Wed 06:52:55 AM 38.3622 -78.1842 355° North 388 447 25,100 950 Climbing Washington Center
Wed 06:53:55 AM 38.4622 -78.1850 360° North 388 447 26,000 550 Climbing Washington Center
Wed 06:54:55 AM 38.5789 -78.1889 359° North 393 452 26,200 500 Climbing Washington Center
Wed 06:55:55 AM 38.6975 -78.1983 356° North 412 474 27,000 400 Climbing Washington Center
Wed 06:56:55 AM 38.8161 -78.2053 357° North 418 481 27,000  Level Washington Center
Wed 06:57:55 AM 38.9411 -78.2150 357° North 423 487 27,000  Level Washington Center
Wed 06:58:55 AM 39.0764 -78.2306 355° North 435 501 27,000  Level Washington Center
Wed 06:59:55 AM 39.2011 -78.2433 355° North 441 507 27,000  Level Washington Center
Wed 07:00:55 AM 39.3278 -78.2558 356° North 446 513 27,000  Level Washington Center
Wed 07:03:02 AM 39.5853 -78.2828 355° North 462 532 27,000  Level Cleveland Center
Wed 07:04:02 AM 39.7106 -78.2919 357° North 462 532 27,000  Level Cleveland Center
Wed 07:05:02 AM 39.8464 -78.3144 353° North 462 532 27,000  Level Cleveland Center
Wed 07:06:02 AM 39.9422 -78.4086 323° Northwest 430 495 27,000  Level Cleveland Center
Wed 07:07:02 AM 40.0194 -78.5308 310° West 418 481 27,000  Level Cleveland Center
Wed 07:08:02 AM 40.0944 -78.6508 309° West 418 481 27,000  Level Cleveland Center
Wed 07:09:02 AM 40.1694 -78.7708 309° West 423 487 27,000 -250 Level Cleveland Center
Wed 07:10:02 AM 40.2444 -78.8914 309° West 433 498 26,500 -500 Descending Cleveland Center
Wed 07:11:02 AM 40.3211 -79.0144 309° West 433 498 26,000 -250 Descending Cleveland Center
Wed 07:12:02 AM 40.3978 -79.1381 309° West 438 504 26,000  Level Cleveland Center
Wed 07:13:02 AM 40.4744 -79.2594 310° West 438 504 26,000  Level Cleveland Center
Wed 07:14:02 AM 40.5464 -79.3728 310° West 443 510 26,000  Level Cleveland Center
Wed 07:15:02 AM 40.6206 -79.4917 309° West 443 510 26,000  Level Cleveland Center
Wed 07:16:02 AM 40.6947 -79.6164 308° West 438 504 26,000  Level Cleveland Center
Wed 07:17:02 AM 40.7708 -79.7414 309° West 438 504 26,000  Level Cleveland Center
Wed 07:18:02 AM 40.8444 -79.8639 308° West 438 504 26,000  Level Cleveland Center
Wed 07:19:02 AM 40.9183 -79.9842 309° West 438 504 26,000 -300 Level Cleveland Center
Wed 07:20:02 AM 40.9897 -80.0989 310° West 424 488 25,400 -750 Descending Cleveland Center
Wed 07:21:02 AM 41.0567 -80.2114 308° West 410 472 24,500 -700 Descending Cleveland Center
Wed 07:22:02 AM 41.1239 -80.3267 308° West 400 460 24,000 -250 Descending Cleveland Center
Wed 07:23:02 AM 41.1992 -80.4533 308° West 394 453 24,000 -1,150 Level Cleveland Center
Wed 07:24:02 AM 41.2533 -80.5719 301° West 383 441 21,700 -2,500 Descending Cleveland Center
Wed 07:25:02 AM 41.3075 -80.6908 301° West 378 435 19,000 -2,450 Descending Cleveland Center
Wed 07:26:02 AM 41.3572 -80.8017 301° West 362 417 16,800 -2,150 Descending Cleveland Center
Wed 07:27:02 AM 41.4008 -80.9042 300° West 336 387 14,700 -2,300 Descending Cleveland Center
Wed 07:28:02 AM 41.4444 -81.0014 301° West 314 361 12,200 -2,442 Descending Cleveland Center
Wed 07:28:28 AM 41.4608 -81.0431 298° West 300 345 11,200 -1,900 Descending Cleveland Center
Wed 07:29:02 AM 41.4731 -81.0986 286° West 301 346 10,300 -1,180 Descending Cleveland Center
Wed 07:29:29 AM 41.4792 -81.1431 280° West 278 320 10,000 -300 Descending Cleveland Center
Wed 07:30:02 AM 41.4872 -81.1903 283° West 285 328 10,000  Level Cleveland Center
Wed 07:30:30 AM 41.4975 -81.2458 284° West 277 319 10,000 -200 Level Cleveland Center
Wed 07:31:02 AM 41.5033 -81.2872 281° West 280 322 9,800 -1,273 Descending Cleveland Center
Wed 07:31:36 AM 41.5114 -81.3458 280° West 234 269 8,600 -1,800 Descending Cleveland Center
Wed 07:32:02 AM 41.5153 -81.3733 281° West 257 296 8,000 -1,522 Descending Cleveland Center
Wed 07:32:43 AM 41.5253 -81.4400 281° West 228 262 6,900 -1,300 Descending Cleveland Center
Wed 07:33:02 AM 41.5292 -81.4569 287° West 234 269 6,700 -1,000 Descending Cleveland Center
Wed 07:33:31 AM 41.5353 -81.5014 280° West 225 259 6,100 -1,100 Descending Cleveland Center
Wed 07:34:02 AM 41.5411 -81.5375 282° West 234 269 5,600 -984 Descending Cleveland Center
Wed 07:34:32 AM 41.5469 -81.5847 279° West 224 258 5,100 -1,000 Descending Cleveland Center
Wed 07:35:02 AM 41.5425 -81.6181 260° West 229 264 4,600 -1,091 Descending Cleveland Center
Wed 07:35:27 AM 41.5381 -81.6567 261° West 216 249 4,100 -700 Descending Cleveland Center
Wed 07:36:02 AM 41.5189 -81.6842 227° Southwest 206 237 3,900 -600 Descending Cleveland Center
Wed 07:36:27 AM 41.5019 -81.7114 230° Southwest 205 236 3,500 -900 Descending Cleveland Center
Wed 07:37:02 AM 41.4872 -81.7333 228° Southwest 189 217 3,000 -787 Descending Cleveland Center
Wed 07:37:28 AM 41.4744 -81.7525 228° Southwest 138 159 2,700 -675 Descending Cleveland Center
Wed 07:38:22 AM 41.4575 -81.7856 236° Southwest 111 128 2,100 -574 Descending Cleveland Center
Wed 07:39:23 AM 41.4364 -81.8128 224° Southwest 134 154 1,600 -492 Descending Cleveland Center

Login

Don't have an account? Register now (free) for customized features, flight alerts, and more!